sensor_id;sensor_type;location;lat;lon;timestamp;P1;durP1;ratioP1;P2;durP2;ratioP2
10365;SDS011;5229;41.820;23.490;2022-09-06T00:03:44;6.30;;;4.40;;
10365;SDS011;5229;41.820;23.490;2022-09-06T00:06:13;3.53;;;3.20;;
10365;SDS011;5229;41.820;23.490;2022-09-06T00:08:42;6.30;;;3.70;;
10365;SDS011;5229;41.820;23.490;2022-09-06T00:11:09;4.17;;;3.77;;
10365;SDS011;5229;41.820;23.490;2022-09-06T00:13:37;4.17;;;3.50;;
10365;SDS011;5229;41.820;23.490;2022-09-06T00:16:05;5.80;;;3.60;;
10365;SDS011;5229;41.820;23.490;2022-09-06T00:18:33;3.47;;;3.17;;
10365;SDS011;5229;41.820;23.490;2022-09-06T00:21:00;4.00;;;3.30;;
10365;SDS011;5229;41.820;23.490;2022-09-06T00:23:29;3.77;;;3.47;;
10365;SDS011;5229;41.820;23.490;2022-09-06T00:26:00;4.63;;;3.93;;
10365;SDS011;5229;41.820;23.490;2022-09-06T00:28:28;3.87;;;3.47;;
10365;SDS011;5229;41.820;23.490;2022-09-06T00:30:55;4.87;;;3.77;;
10365;SDS011;5229;41.820;23.490;2022-09-06T00:33:22;3.50;;;3.20;;
10365;SDS011;5229;41.820;23.490;2022-09-06T00:35:49;3.47;;;3.17;;
10365;SDS011;5229;41.820;23.490;2022-09-06T00:38:16;4.13;;;3.30;;
10365;SDS011;5229;41.820;23.490;2022-09-06T00:40:44;4.17;;;3.47;;
10365;SDS011;5229;41.820;23.490;2022-09-06T00:43:11;4.40;;;3.33;;
10365;SDS011;5229;41.820;23.490;2022-09-06T00:45:38;3.90;;;3.50;;
10365;SDS011;5229;41.820;23.490;2022-09-06T00:48:05;3.90;;;3.50;;
10365;SDS011;5229;41.820;23.490;2022-09-06T00:53:54;3.40;;;3.10;;
10365;SDS011;5229;41.820;23.490;2022-09-06T01:02:34;3.67;;;3.37;;
10365;SDS011;5229;41.820;23.490;2022-09-06T01:05:01;4.23;;;3.83;;
10365;SDS011;5229;41.820;23.490;2022-09-06T01:07:34;6.80;;;3.70;;
10365;SDS011;5229;41.820;23.490;2022-09-06T01:10:17;4.70;;;4.23;;
10365;SDS011;5229;41.820;23.490;2022-09-06T01:12:56;4.50;;;3.70;;
10365;SDS011;5229;41.820;23.490;2022-09-06T01:15:33;3.83;;;3.53;;
10365;SDS011;5229;41.820;23.490;2022-09-06T01:18:13;4.40;;;3.50;;
10365;SDS011;5229;41.820;23.490;2022-09-06T01:20:55;4.37;;;3.83;;
10365;SDS011;5229;41.820;23.490;2022-09-06T01:26:51;8.50;;;4.40;;
10365;SDS011;5229;41.820;23.490;2022-09-06T01:29:46;4.03;;;3.63;;
10365;SDS011;5229;41.820;23.490;2022-09-06T01:32:17;3.70;;;3.40;;
10365;SDS011;5229;41.820;23.490;2022-09-06T01:34:49;6.90;;;3.63;;
10365;SDS011;5229;41.820;23.490;2022-09-06T01:37:19;4.10;;;3.80;;
10365;SDS011;5229;41.820;23.490;2022-09-06T01:39:48;3.67;;;3.37;;
10365;SDS011;5229;41.820;23.490;2022-09-06T01:42:16;4.03;;;3.50;;
10365;SDS011;5229;41.820;23.490;2022-09-06T01:44:48;4.07;;;3.60;;
10365;SDS011;5229;41.820;23.490;2022-09-06T01:47:28;4.13;;;3.73;;
10365;SDS011;5229;41.820;23.490;2022-09-06T01:50:14;3.97;;;3.67;;
10365;SDS011;5229;41.820;23.490;2022-09-06T01:56:20;4.77;;;4.27;;
10365;SDS011;5229;41.820;23.490;2022-09-06T01:59:02;4.47;;;4.07;;
10365;SDS011;5229;41.820;23.490;2022-09-06T02:01:43;4.37;;;3.70;;
10365;SDS011;5229;41.820;23.490;2022-09-06T02:04:18;5.13;;;4.63;;
10365;SDS011;5229;41.820;23.490;2022-09-06T02:06:52;4.40;;;3.80;;
10365;SDS011;5229;41.820;23.490;2022-09-06T02:09:24;5.13;;;4.63;;
10365;SDS011;5229;41.820;23.490;2022-09-06T02:11:57;4.30;;;3.90;;
10365;SDS011;5229;41.820;23.490;2022-09-06T02:14:26;4.40;;;4.00;;
10365;SDS011;5229;41.820;23.490;2022-09-06T02:17:00;4.87;;;4.47;;
10365;SDS011;5229;41.820;23.490;2022-09-06T02:19:31;5.57;;;4.23;;
10365;SDS011;5229;41.820;23.490;2022-09-06T02:22:02;5.00;;;4.50;;
10365;SDS011;5229;41.820;23.490;2022-09-06T02:24:33;5.00;;;4.50;;
10365;SDS011;5229;41.820;23.490;2022-09-06T02:27:04;4.93;;;4.50;;
10365;SDS011;5229;41.820;23.490;2022-09-06T02:29:32;5.53;;;5.00;;
10365;SDS011;5229;41.820;23.490;2022-09-06T02:32:02;4.93;;;4.40;;
10365;SDS011;5229;41.820;23.490;2022-09-06T02:34:35;6.50;;;4.93;;
10365;SDS011;5229;41.820;23.490;2022-09-06T02:37:04;7.83;;;4.93;;
10365;SDS011;5229;41.820;23.490;2022-09-06T02:39:31;6.17;;;4.67;;
10365;SDS011;5229;41.820;23.490;2022-09-06T02:48:43;5.87;;;5.27;;
10365;SDS011;5229;41.820;23.490;2022-09-06T02:51:10;5.87;;;5.37;;
10365;SDS011;5229;41.820;23.490;2022-09-06T02:53:37;6.27;;;5.43;;
10365;SDS011;5229;41.820;23.490;2022-09-06T02:56:04;6.00;;;4.90;;
10365;SDS011;5229;41.820;23.490;2022-09-06T02:58:31;6.13;;;5.53;;
10365;SDS011;5229;41.820;23.490;2022-09-06T03:00:58;6.70;;;5.80;;
10365;SDS011;5229;41.820;23.490;2022-09-06T03:03:25;7.20;;;6.13;;
10365;SDS011;5229;41.820;23.490;2022-09-06T03:05:54;5.97;;;5.10;;
10365;SDS011;5229;41.820;23.490;2022-09-06T03:08:22;5.63;;;5.07;;
10365;SDS011;5229;41.820;23.490;2022-09-06T03:10:51;6.63;;;5.40;;
10365;SDS011;5229;41.820;23.490;2022-09-06T03:13:20;5.77;;;5.20;;
10365;SDS011;5229;41.820;23.490;2022-09-06T03:15:48;5.43;;;4.93;;
10365;SDS011;5229;41.820;23.490;2022-09-06T03:18:15;7.53;;;6.07;;
10365;SDS011;5229;41.820;23.490;2022-09-06T03:20:42;6.50;;;5.53;;
10365;SDS011;5229;41.820;23.490;2022-09-06T03:23:10;6.47;;;5.23;;
10365;SDS011;5229;41.820;23.490;2022-09-06T03:25:37;6.13;;;5.53;;
10365;SDS011;5229;41.820;23.490;2022-09-06T03:28:04;6.43;;;5.70;;
10365;SDS011;5229;41.820;23.490;2022-09-06T03:30:31;6.73;;;5.90;;
10365;SDS011;5229;41.820;23.490;2022-09-06T03:32:57;7.23;;;5.27;;
10365;SDS011;5229;41.820;23.490;2022-09-06T03:35:24;6.93;;;5.57;;
10365;SDS011;5229;41.820;23.490;2022-09-06T03:37:51;7.00;;;5.90;;
10365;SDS011;5229;41.820;23.490;2022-09-06T03:40:19;5.90;;;5.30;;
10365;SDS011;5229;41.820;23.490;2022-09-06T03:42:46;5.83;;;5.23;;
10365;SDS011;5229;41.820;23.490;2022-09-06T03:45:13;7.10;;;6.37;;
10365;SDS011;5229;41.820;23.490;2022-09-06T03:47:40;7.37;;;5.37;;
10365;SDS011;5229;41.820;23.490;2022-09-06T03:50:07;10.30;;;5.87;;
10365;SDS011;5229;41.820;23.490;2022-09-06T03:52:34;6.53;;;5.57;;
10365;SDS011;5229;41.820;23.490;2022-09-06T03:55:01;6.07;;;5.47;;
10365;SDS011;5229;41.820;23.490;2022-09-06T03:57:29;6.40;;;5.47;;
10365;SDS011;5229;41.820;23.490;2022-09-06T03:59:56;9.87;;;5.80;;
10365;SDS011;5229;41.820;23.490;2022-09-06T04:02:23;6.30;;;5.70;;
10365;SDS011;5229;41.820;23.490;2022-09-06T04:04:49;9.67;;;5.70;;
10365;SDS011;5229;41.820;23.490;2022-09-06T04:07:19;6.20;;;5.60;;
10365;SDS011;5229;41.820;23.490;2022-09-06T04:09:46;9.10;;;5.77;;
10365;SDS011;5229;41.820;23.490;2022-09-06T04:12:13;5.57;;;5.07;;
10365;SDS011;5229;41.820;23.490;2022-09-06T04:14:41;7.37;;;6.10;;
10365;SDS011;5229;41.820;23.490;2022-09-06T04:17:08;5.90;;;5.30;;
10365;SDS011;5229;41.820;23.490;2022-09-06T04:19:36;6.30;;;5.70;;
10365;SDS011;5229;41.820;23.490;2022-09-06T04:22:03;6.07;;;5.47;;
10365;SDS011;5229;41.820;23.490;2022-09-06T04:24:30;5.83;;;5.23;;
10365;SDS011;5229;41.820;23.490;2022-09-06T04:26:57;7.03;;;5.80;;
10365;SDS011;5229;41.820;23.490;2022-09-06T04:31:56;5.70;;;5.03;;
10365;SDS011;5229;41.820;23.490;2022-09-06T04:34:23;8.00;;;5.40;;
10365;SDS011;5229;41.820;23.490;2022-09-06T04:36:50;6.37;;;5.77;;
10365;SDS011;5229;41.820;23.490;2022-09-06T04:39:17;6.97;;;5.80;;
10365;SDS011;5229;41.820;23.490;2022-09-06T04:41:44;5.90;;;4.80;;
10365;SDS011;5229;41.820;23.490;2022-09-06T04:44:10;6.53;;;4.83;;
10365;SDS011;5229;41.820;23.490;2022-09-06T04:46:39;5.23;;;4.67;;
10365;SDS011;5229;41.820;23.490;2022-09-06T04:49:08;6.13;;;4.83;;
10365;SDS011;5229;41.820;23.490;2022-09-06T04:51:35;7.33;;;4.90;;
10365;SDS011;5229;41.820;23.490;2022-09-06T04:54:03;5.07;;;4.57;;
10365;SDS011;5229;41.820;23.490;2022-09-06T04:56:30;7.10;;;5.37;;
10365;SDS011;5229;41.820;23.490;2022-09-06T04:58:57;5.60;;;5.10;;
10365;SDS011;5229;41.820;23.490;2022-09-06T05:01:24;4.70;;;4.30;;
10365;SDS011;5229;41.820;23.490;2022-09-06T05:03:51;5.33;;;4.83;;
10365;SDS011;5229;41.820;23.490;2022-09-06T05:06:20;5.27;;;4.67;;
10365;SDS011;5229;41.820;23.490;2022-09-06T05:08:48;5.67;;;5.10;;
10365;SDS011;5229;41.820;23.490;2022-09-06T05:11:16;5.63;;;5.13;;
10365;SDS011;5229;41.820;23.490;2022-09-06T05:13:44;5.47;;;5.00;;
10365;SDS011;5229;41.820;23.490;2022-09-06T05:18:56;6.90;;;4.93;;
10365;SDS011;5229;41.820;23.490;2022-09-06T05:21:24;6.47;;;5.03;;
10365;SDS011;5229;41.820;23.490;2022-09-06T05:23:51;5.77;;;4.77;;
10365;SDS011;5229;41.820;23.490;2022-09-06T05:26:18;5.37;;;4.87;;
10365;SDS011;5229;41.820;23.490;2022-09-06T05:28:45;6.80;;;5.00;;
10365;SDS011;5229;41.820;23.490;2022-09-06T05:31:12;6.30;;;5.60;;
10365;SDS011;5229;41.820;23.490;2022-09-06T05:33:51;5.87;;;5.27;;
10365;SDS011;5229;41.820;23.490;2022-09-06T05:36:19;8.07;;;5.87;;
10365;SDS011;5229;41.820;23.490;2022-09-06T05:38:49;5.97;;;5.40;;
10365;SDS011;5229;41.820;23.490;2022-09-06T05:41:16;5.63;;;5.13;;
10365;SDS011;5229;41.820;23.490;2022-09-06T05:43:43;7.63;;;5.27;;
10365;SDS011;5229;41.820;23.490;2022-09-06T05:46:10;5.57;;;4.93;;
10365;SDS011;5229;41.820;23.490;2022-09-06T05:48:37;6.00;;;5.40;;
10365;SDS011;5229;41.820;23.490;2022-09-06T05:51:05;5.70;;;5.13;;
10365;SDS011;5229;41.820;23.490;2022-09-06T05:53:33;6.03;;;5.43;;
10365;SDS011;5229;41.820;23.490;2022-09-06T05:56:02;6.27;;;4.63;;
10365;SDS011;5229;41.820;23.490;2022-09-06T05:58:30;6.63;;;4.97;;
10365;SDS011;5229;41.820;23.490;2022-09-06T06:01:06;6.93;;;5.13;;
10365;SDS011;5229;41.820;23.490;2022-09-06T06:03:40;7.20;;;5.20;;
10365;SDS011;5229;41.820;23.490;2022-09-06T06:06:07;5.77;;;5.20;;
10365;SDS011;5229;41.820;23.490;2022-09-06T06:08:34;5.50;;;5.00;;
10365;SDS011;5229;41.820;23.490;2022-09-06T06:11:03;5.80;;;5.30;;
10365;SDS011;5229;41.820;23.490;2022-09-06T08:21:14;3.53;;;3.22;;
10365;SDS011;5229;41.820;23.490;2022-09-06T08:23:43;3.42;;;3.13;;
10365;SDS011;5229;41.820;23.490;2022-09-06T08:26:11;4.80;;;3.20;;
10365;SDS011;5229;41.820;23.490;2022-09-06T08:28:38;3.75;;;3.45;;
10365;SDS011;5229;41.820;23.490;2022-09-06T08:31:06;4.05;;;3.22;;
10365;SDS011;5229;41.820;23.490;2022-09-06T08:33:33;30.50;;;5.50;;
10365;SDS011;5229;41.820;23.490;2022-09-06T08:36:00;3.30;;;3.00;;
10365;SDS011;5229;41.820;23.490;2022-09-06T08:38:29;3.47;;;3.17;;
10365;SDS011;5229;41.820;23.490;2022-09-06T08:41:04;3.47;;;3.17;;
10365;SDS011;5229;41.820;23.490;2022-09-06T08:43:33;9.80;;;3.03;;
10365;SDS011;5229;41.820;23.490;2022-09-06T08:46:01;3.00;;;2.70;;
10365;SDS011;5229;41.820;23.490;2022-09-06T08:48:29;2.90;;;2.55;;
10365;SDS011;5229;41.820;23.490;2022-09-06T08:51:03;4.18;;;2.80;;
10365;SDS011;5229;41.820;23.490;2022-09-06T08:53:45;2.60;;;2.40;;
10365;SDS011;5229;41.820;23.490;2022-09-06T08:56:14;2.45;;;2.25;;
10365;SDS011;5229;41.820;23.490;2022-09-06T08:58:58;3.78;;;1.92;;
10365;SDS011;5229;41.820;23.490;2022-09-06T09:01:31;2.67;;;2.47;;
10365;SDS011;5229;41.820;23.490;2022-09-06T09:04:01;3.78;;;2.65;;
10365;SDS011;5229;41.820;23.490;2022-09-06T09:06:31;2.40;;;2.20;;
10365;SDS011;5229;41.820;23.490;2022-09-06T09:09:01;2.60;;;2.40;;
10365;SDS011;5229;41.820;23.490;2022-09-06T09:11:31;2.70;;;2.50;;
10365;SDS011;5229;41.820;23.490;2022-09-06T09:14:01;2.85;;;2.38;;
10365;SDS011;5229;41.820;23.490;2022-09-06T09:16:31;1.98;;;1.88;;
10365;SDS011;5229;41.820;23.490;2022-09-06T09:18:59;1.73;;;1.63;;
10365;SDS011;5229;41.820;23.490;2022-09-06T09:21:30;3.25;;;2.00;;
10365;SDS011;5229;41.820;23.490;2022-09-06T09:24:03;2.25;;;2.08;;
10365;SDS011;5229;41.820;23.490;2022-09-06T09:26:35;2.47;;;2.28;;
10365;SDS011;5229;41.820;23.490;2022-09-06T09:29:09;2.33;;;2.13;;
10365;SDS011;5229;41.820;23.490;2022-09-06T09:31:38;2.10;;;2.00;;
10365;SDS011;5229;41.820;23.490;2022-09-06T09:34:09;2.05;;;1.83;;
10365;SDS011;5229;41.820;23.490;2022-09-06T09:36:37;1.88;;;1.77;;
10365;SDS011;5229;41.820;23.490;2022-09-06T09:39:08;2.10;;;2.00;;
10365;SDS011;5229;41.820;23.490;2022-09-06T09:41:36;2.15;;;1.83;;
10365;SDS011;5229;41.820;23.490;2022-09-06T09:44:08;1.98;;;1.88;;
10365;SDS011;5229;41.820;23.490;2022-09-06T09:46:37;2.22;;;1.88;;
10365;SDS011;5229;41.820;23.490;2022-09-06T09:49:06;3.15;;;2.03;;
10365;SDS011;5229;41.820;23.490;2022-09-06T09:51:35;2.00;;;1.83;;
10365;SDS011;5229;41.820;23.490;2022-09-06T09:54:04;2.85;;;1.70;;
10365;SDS011;5229;41.820;23.490;2022-09-06T09:56:44;1.80;;;1.70;;
10365;SDS011;5229;41.820;23.490;2022-09-06T09:59:17;2.20;;;2.10;;
10365;SDS011;5229;41.820;23.490;2022-09-06T10:01:47;1.95;;;1.83;;
10365;SDS011;5229;41.820;23.490;2022-09-06T10:04:18;1.60;;;1.50;;
10365;SDS011;5229;41.820;23.490;2022-09-06T10:06:47;1.90;;;1.80;;
10365;SDS011;5229;41.820;23.490;2022-09-06T10:09:28;3.83;;;1.70;;
10365;SDS011;5229;41.820;23.490;2022-09-06T10:12:00;1.73;;;1.60;;
10365;SDS011;5229;41.820;23.490;2022-09-06T10:14:28;1.80;;;1.70;;
10365;SDS011;5229;41.820;23.490;2022-09-06T10:16:57;1.70;;;1.60;;
10365;SDS011;5229;41.820;23.490;2022-09-06T10:19:39;1.80;;;1.70;;
10365;SDS011;5229;41.820;23.490;2022-09-06T10:22:10;3.05;;;1.55;;
10365;SDS011;5229;41.820;23.490;2022-09-06T10:24:48;2.25;;;1.73;;
10365;SDS011;5229;41.820;23.490;2022-09-06T10:27:38;1.90;;;1.70;;
10365;SDS011;5229;41.820;23.490;2022-09-06T10:30:16;1.70;;;1.60;;
10365;SDS011;5229;41.820;23.490;2022-09-06T10:32:44;2.03;;;1.83;;
10365;SDS011;5229;41.820;23.490;2022-09-06T10:35:15;4.45;;;1.83;;
10365;SDS011;5229;41.820;23.490;2022-09-06T10:37:49;1.50;;;1.40;;
10365;SDS011;5229;41.820;23.490;2022-09-06T10:40:28;1.10;;;1.10;;
10365;SDS011;5229;41.820;23.490;2022-09-06T10:42:59;1.52;;;1.42;;
10365;SDS011;5229;41.820;23.490;2022-09-06T10:45:42;1.73;;;1.63;;
10365;SDS011;5229;41.820;23.490;2022-09-06T10:48:13;1.67;;;1.48;;
10365;SDS011;5229;41.820;23.490;2022-09-06T10:50:47;1.90;;;1.70;;
10365;SDS011;5229;41.820;23.490;2022-09-06T10:53:23;1.60;;;1.50;;
10365;SDS011;5229;41.820;23.490;2022-09-06T10:56:07;1.90;;;1.80;;
10365;SDS011;5229;41.820;23.490;2022-09-06T10:58:40;2.65;;;1.80;;
10365;SDS011;5229;41.820;23.490;2022-09-06T11:01:17;2.22;;;1.55;;
10365;SDS011;5229;41.820;23.490;2022-09-06T11:03:50;1.48;;;1.38;;
10365;SDS011;5229;41.820;23.490;2022-09-06T11:06:18;1.77;;;1.67;;
10365;SDS011;5229;41.820;23.490;2022-09-06T11:08:53;1.60;;;1.50;;
10365;SDS011;5229;41.820;23.490;2022-09-06T11:11:25;3.50;;;1.58;;
10365;SDS011;5229;41.820;23.490;2022-09-06T11:14:01;1.58;;;1.48;;
10365;SDS011;5229;41.820;23.490;2022-09-06T11:16:35;1.67;;;1.58;;
10365;SDS011;5229;41.820;23.490;2022-09-06T11:19:07;2.03;;;1.80;;
10365;SDS011;5229;41.820;23.490;2022-09-06T11:24:40;1.67;;;1.58;;
10365;SDS011;5229;41.820;23.490;2022-09-06T11:27:19;1.65;;;1.55;;
10365;SDS011;5229;41.820;23.490;2022-09-06T11:29:54;1.90;;;1.80;;
10365;SDS011;5229;41.820;23.490;2022-09-06T11:32:27;3.60;;;1.55;;
10365;SDS011;5229;41.820;23.490;2022-09-06T11:34:58;1.67;;;1.58;;
10365;SDS011;5229;41.820;23.490;2022-09-06T11:37:29;2.03;;;1.83;;
10365;SDS011;5229;41.820;23.490;2022-09-06T11:43:11;1.55;;;1.45;;
10365;SDS011;5229;41.820;23.490;2022-09-06T11:45:42;1.80;;;1.58;;
10365;SDS011;5229;41.820;23.490;2022-09-06T11:51:30;1.30;;;1.20;;
10365;SDS011;5229;41.820;23.490;2022-09-06T11:54:01;1.42;;;1.23;;
10365;SDS011;5229;41.820;23.490;2022-09-06T11:56:31;1.63;;;1.52;;
10365;SDS011;5229;41.820;23.490;2022-09-06T11:59:06;2.13;;;2.00;;
10365;SDS011;5229;41.820;23.490;2022-09-06T12:01:59;2.30;;;2.10;;
10365;SDS011;5229;41.820;23.490;2022-09-06T12:07:33;2.60;;;2.40;;
10365;SDS011;5229;41.820;23.490;2022-09-06T12:10:02;2.55;;;2.35;;
10365;SDS011;5229;41.820;23.490;2022-09-06T12:16:10;2.50;;;2.30;;
10365;SDS011;5229;41.820;23.490;2022-09-06T12:27:18;2.53;;;2.20;;
10365;SDS011;5229;41.820;23.490;2022-09-06T12:29:50;2.33;;;2.13;;
10365;SDS011;5229;41.820;23.490;2022-09-06T12:32:21;1.75;;;1.65;;
10365;SDS011;5229;41.820;23.490;2022-09-06T12:34:53;2.03;;;1.83;;
10365;SDS011;5229;41.820;23.490;2022-09-06T12:37:34;2.80;;;2.60;;
10365;SDS011;5229;41.820;23.490;2022-09-06T12:40:03;3.15;;;2.83;;
10365;SDS011;5229;41.820;23.490;2022-09-06T12:42:33;3.72;;;3.33;;
10365;SDS011;5229;41.820;23.490;2022-09-06T12:45:03;3.33;;;3.00;;
10365;SDS011;5229;41.820;23.490;2022-09-06T12:47:33;7.38;;;3.00;;
10365;SDS011;5229;41.820;23.490;2022-09-06T12:50:12;2.60;;;2.40;;
10365;SDS011;5229;41.820;23.490;2022-09-06T12:52:46;2.15;;;1.92;;
10365;SDS011;5229;41.820;23.490;2022-09-06T12:55:19;4.95;;;1.80;;
10365;SDS011;5229;41.820;23.490;2022-09-06T12:57:49;1.77;;;1.67;;
10365;SDS011;5229;41.820;23.490;2022-09-06T13:00:17;2.50;;;1.75;;
10365;SDS011;5229;41.820;23.490;2022-09-06T13:02:50;2.17;;;1.90;;
10365;SDS011;5229;41.820;23.490;2022-09-06T13:05:23;3.13;;;1.90;;
10365;SDS011;5229;41.820;23.490;2022-09-06T13:07:53;2.67;;;2.15;;
10365;SDS011;5229;41.820;23.490;2022-09-06T13:10:24;1.85;;;1.75;;
10365;SDS011;5229;41.820;23.490;2022-09-06T13:12:53;2.03;;;1.92;;
10365;SDS011;5229;41.820;23.490;2022-09-06T13:15:22;1.63;;;1.52;;
10365;SDS011;5229;41.820;23.490;2022-09-06T13:17:51;1.92;;;1.83;;
10365;SDS011;5229;41.820;23.490;2022-09-06T13:20:25;1.80;;;1.70;;
10365;SDS011;5229;41.820;23.490;2022-09-06T13:23:04;3.90;;;1.67;;
10365;SDS011;5229;41.820;23.490;2022-09-06T13:25:34;2.88;;;2.00;;
10365;SDS011;5229;41.820;23.490;2022-09-06T13:28:21;3.47;;;1.85;;
10365;SDS011;5229;41.820;23.490;2022-09-06T13:31:00;5.40;;;1.98;;
10365;SDS011;5229;41.820;23.490;2022-09-06T13:33:28;2.05;;;1.70;;
10365;SDS011;5229;41.820;23.490;2022-09-06T13:36:05;1.63;;;1.52;;
10365;SDS011;5229;41.820;23.490;2022-09-06T13:38:47;2.03;;;1.92;;
10365;SDS011;5229;41.820;23.490;2022-09-06T13:44:06;2.00;;;1.75;;
10365;SDS011;5229;41.820;23.490;2022-09-06T13:46:43;1.65;;;1.55;;
10365;SDS011;5229;41.820;23.490;2022-09-06T13:49:10;2.22;;;1.88;;
10365;SDS011;5229;41.820;23.490;2022-09-06T13:51:39;2.13;;;1.92;;
10365;SDS011;5229;41.820;23.490;2022-09-06T13:54:09;1.73;;;1.60;;
10365;SDS011;5229;41.820;23.490;2022-09-06T13:56:37;1.95;;;1.80;;
10365;SDS011;5229;41.820;23.490;2022-09-06T13:59:05;1.80;;;1.70;;
10365;SDS011;5229;41.820;23.490;2022-09-06T14:01:33;2.22;;;1.77;;
10365;SDS011;5229;41.820;23.490;2022-09-06T14:04:00;1.70;;;1.60;;
10365;SDS011;5229;41.820;23.490;2022-09-06T14:06:28;2.60;;;2.15;;
10365;SDS011;5229;41.820;23.490;2022-09-06T14:08:56;2.00;;;1.80;;
10365;SDS011;5229;41.820;23.490;2022-09-06T14:11:23;3.25;;;1.80;;
10365;SDS011;5229;41.820;23.490;2022-09-06T14:13:50;2.38;;;1.90;;
10365;SDS011;5229;41.820;23.490;2022-09-06T14:16:17;2.03;;;1.90;;
10365;SDS011;5229;41.820;23.490;2022-09-06T14:18:44;1.90;;;1.80;;
10365;SDS011;5229;41.820;23.490;2022-09-06T14:21:11;2.13;;;1.90;;
10365;SDS011;5229;41.820;23.490;2022-09-06T14:23:38;2.20;;;1.90;;
10365;SDS011;5229;41.820;23.490;2022-09-06T14:26:06;3.30;;;2.00;;
10365;SDS011;5229;41.820;23.490;2022-09-06T14:28:33;1.85;;;1.70;;
10365;SDS011;5229;41.820;23.490;2022-09-06T14:31:08;1.70;;;1.60;;
10365;SDS011;5229;41.820;23.490;2022-09-06T14:33:35;1.75;;;1.65;;
10365;SDS011;5229;41.820;23.490;2022-09-06T14:36:04;1.70;;;1.60;;
10365;SDS011;5229;41.820;23.490;2022-09-06T14:38:34;5.93;;;1.95;;
10365;SDS011;5229;41.820;23.490;2022-09-06T14:41:02;6.43;;;1.92;;
10365;SDS011;5229;41.820;23.490;2022-09-06T14:43:31;2.08;;;1.90;;
10365;SDS011;5229;41.820;23.490;2022-09-06T14:46:02;1.90;;;1.80;;
10365;SDS011;5229;41.820;23.490;2022-09-06T14:48:30;2.28;;;1.80;;
10365;SDS011;5229;41.820;23.490;2022-09-06T14:50:56;2.10;;;1.90;;
10365;SDS011;5229;41.820;23.490;2022-09-06T14:53:23;2.10;;;1.90;;
10365;SDS011;5229;41.820;23.490;2022-09-06T14:55:50;2.10;;;1.90;;
10365;SDS011;5229;41.820;23.490;2022-09-06T14:58:17;2.22;;;2.00;;
10365;SDS011;5229;41.820;23.490;2022-09-06T15:00:45;2.03;;;1.88;;
10365;SDS011;5229;41.820;23.490;2022-09-06T15:03:14;2.65;;;1.98;;
10365;SDS011;5229;41.820;23.490;2022-09-06T15:05:41;2.22;;;1.65;;
10365;SDS011;5229;41.820;23.490;2022-09-06T15:08:08;2.22;;;1.90;;
10365;SDS011;5229;41.820;23.490;2022-09-06T15:10:34;2.53;;;2.00;;
10365;SDS011;5229;41.820;23.490;2022-09-06T15:13:01;3.22;;;2.00;;
10365;SDS011;5229;41.820;23.490;2022-09-06T15:15:28;1.90;;;1.80;;
10365;SDS011;5229;41.820;23.490;2022-09-06T15:17:57;1.90;;;1.80;;
10365;SDS011;5229;41.820;23.490;2022-09-06T15:20:24;2.47;;;2.03;;
10365;SDS011;5229;41.820;23.490;2022-09-06T15:22:50;2.67;;;2.47;;
10365;SDS011;5229;41.820;23.490;2022-09-06T15:25:18;4.55;;;2.25;;
10365;SDS011;5229;41.820;23.490;2022-09-06T15:27:45;2.03;;;1.88;;
10365;SDS011;5229;41.820;23.490;2022-09-06T15:30:12;2.72;;;2.28;;
10365;SDS011;5229;41.820;23.490;2022-09-06T15:32:39;3.38;;;1.90;;
10365;SDS011;5229;41.820;23.490;2022-09-06T15:35:07;2.63;;;2.40;;
10365;SDS011;5229;41.820;23.490;2022-09-06T15:37:34;2.23;;;2.03;;
10365;SDS011;5229;41.820;23.490;2022-09-06T15:40:01;2.20;;;2.00;;
10365;SDS011;5229;41.820;23.490;2022-09-06T15:42:28;2.10;;;1.90;;
10365;SDS011;5229;41.820;23.490;2022-09-06T15:44:56;5.88;;;2.25;;
10365;SDS011;5229;41.820;23.490;2022-09-06T15:47:23;2.30;;;2.10;;
10365;SDS011;5229;41.820;23.490;2022-09-06T15:49:50;2.35;;;2.15;;
10365;SDS011;5229;41.820;23.490;2022-09-06T15:52:18;3.93;;;1.80;;
10365;SDS011;5229;41.820;23.490;2022-09-06T15:54:45;2.33;;;2.07;;
10365;SDS011;5229;41.820;23.490;2022-09-06T15:57:30;2.20;;;1.63;;
10365;SDS011;5229;41.820;23.490;2022-09-06T15:59:57;2.37;;;2.03;;
10365;SDS011;5229;41.820;23.490;2022-09-06T16:02:23;2.13;;;1.60;;
10365;SDS011;5229;41.820;23.490;2022-09-06T16:04:50;2.10;;;1.80;;
10365;SDS011;5229;41.820;23.490;2022-09-06T16:07:19;2.00;;;1.77;;
10365;SDS011;5229;41.820;23.490;2022-09-06T16:09:46;2.37;;;2.07;;
10365;SDS011;5229;41.820;23.490;2022-09-06T16:12:12;4.70;;;1.90;;
10365;SDS011;5229;41.820;23.490;2022-09-06T16:14:39;1.70;;;1.60;;
10365;SDS011;5229;41.820;23.490;2022-09-06T16:17:06;3.03;;;1.80;;
10365;SDS011;5229;41.820;23.490;2022-09-06T16:19:33;2.20;;;1.90;;
10365;SDS011;5229;41.820;23.490;2022-09-06T16:22:00;1.73;;;1.63;;
10365;SDS011;5229;41.820;23.490;2022-09-06T16:24:28;2.70;;;1.87;;
10365;SDS011;5229;41.820;23.490;2022-09-06T16:26:55;1.70;;;1.60;;
10365;SDS011;5229;41.820;23.490;2022-09-06T16:29:22;1.87;;;1.77;;
10365;SDS011;5229;41.820;23.490;2022-09-06T16:31:49;2.73;;;2.00;;
10365;SDS011;5229;41.820;23.490;2022-09-06T16:34:20;1.90;;;1.77;;
10365;SDS011;5229;41.820;23.490;2022-09-06T16:36:47;4.00;;;3.60;;
10365;SDS011;5229;41.820;23.490;2022-09-06T16:39:14;2.30;;;2.03;;
10365;SDS011;5229;41.820;23.490;2022-09-06T16:41:43;1.83;;;1.73;;
10365;SDS011;5229;41.820;23.490;2022-09-06T16:44:12;3.33;;;2.20;;
10365;SDS011;5229;41.820;23.490;2022-09-06T16:46:40;2.17;;;1.87;;
10365;SDS011;5229;41.820;23.490;2022-09-06T16:49:08;1.77;;;1.67;;
10365;SDS011;5229;41.820;23.490;2022-09-06T16:51:35;4.07;;;1.90;;
10365;SDS011;5229;41.820;23.490;2022-09-06T16:54:02;2.23;;;2.03;;
10365;SDS011;5229;41.820;23.490;2022-09-06T16:56:30;3.53;;;2.13;;
10365;SDS011;5229;41.820;23.490;2022-09-06T16:59:02;2.80;;;2.20;;
10365;SDS011;5229;41.820;23.490;2022-09-06T17:01:31;2.00;;;1.90;;
10365;SDS011;5229;41.820;23.490;2022-09-06T17:03:59;3.90;;;1.90;;
10365;SDS011;5229;41.820;23.490;2022-09-06T17:06:26;2.20;;;2.00;;
10365;SDS011;5229;41.820;23.490;2022-09-06T17:08:54;4.03;;;1.70;;
10365;SDS011;5229;41.820;23.490;2022-09-06T17:11:23;1.60;;;1.50;;
10365;SDS011;5229;41.820;23.490;2022-09-06T17:13:52;2.10;;;1.90;;
10365;SDS011;5229;41.820;23.490;2022-09-06T17:16:22;2.67;;;2.10;;
10365;SDS011;5229;41.820;23.490;2022-09-06T17:19:07;2.30;;;2.10;;
10365;SDS011;5229;41.820;23.490;2022-09-06T17:21:34;2.40;;;2.03;;
10365;SDS011;5229;41.820;23.490;2022-09-06T17:24:03;3.60;;;2.23;;
10365;SDS011;5229;41.820;23.490;2022-09-06T17:26:30;2.83;;;1.60;;
10365;SDS011;5229;41.820;23.490;2022-09-06T17:28:58;2.20;;;2.00;;
10365;SDS011;5229;41.820;23.490;2022-09-06T17:31:27;4.07;;;1.90;;
10365;SDS011;5229;41.820;23.490;2022-09-06T17:33:54;1.63;;;1.53;;
10365;SDS011;5229;41.820;23.490;2022-09-06T17:36:21;1.83;;;1.73;;
10365;SDS011;5229;41.820;23.490;2022-09-06T17:38:49;4.23;;;2.77;;
10365;SDS011;5229;41.820;23.490;2022-09-06T17:41:17;2.40;;;2.10;;
10365;SDS011;5229;41.820;23.490;2022-09-06T17:43:47;2.00;;;1.90;;
10365;SDS011;5229;41.820;23.490;2022-09-06T17:46:14;2.80;;;1.93;;
10365;SDS011;5229;41.820;23.490;2022-09-06T17:48:42;2.30;;;2.10;;
10365;SDS011;5229;41.820;23.490;2022-09-06T17:51:10;2.60;;;1.97;;
10365;SDS011;5229;41.820;23.490;2022-09-06T17:53:37;1.90;;;1.73;;
10365;SDS011;5229;41.820;23.490;2022-09-06T17:56:05;2.27;;;2.07;;
10365;SDS011;5229;41.820;23.490;2022-09-06T17:58:34;2.30;;;1.80;;
10365;SDS011;5229;41.820;23.490;2022-09-06T18:01:02;3.30;;;1.83;;
10365;SDS011;5229;41.820;23.490;2022-09-06T18:03:29;3.00;;;1.90;;
10365;SDS011;5229;41.820;23.490;2022-09-06T18:06:02;1.83;;;1.70;;
10365;SDS011;5229;41.820;23.490;2022-09-06T18:08:31;5.77;;;2.10;;
10365;SDS011;5229;41.820;23.490;2022-09-06T18:10:58;2.70;;;1.87;;